Time;durP1;ratioP1;P1;durP2;ratioP2;P2;SDS_P1;SDS_P2;PMS_P1;PMS_P2;Temp;Humidity;BMP_temperature;BMP_pressure;BME280_temperature;BME280_humidity;BME280_pressure;Samples;Min_cycle;Max_cycle;Signal;HPM_P1;HPM_P2
2023/04/30 00:02:06;;;;;;;13.02;4.88;;;14.20;99.90;;;;;;10142074;28;20047;-61
2023/04/30 00:06:56;;;;;;;7.93;4.40;;;14.20;99.90;;;;;;10123348;28;20031;-64
2023/04/30 00:11:47;;;;;;;7.63;4.78;;;14.10;99.90;;;;;;10134614;28;20328;-60
2023/04/30 00:16:38;;;;;;;10.07;4.80;;;14.10;99.90;;;;;;10129335;28;20032;-60
2023/04/30 00:21:28;;;;;;;8.88;5.90;;;14.10;99.90;;;;;;10130401;28;20127;-60
2023/04/30 00:26:19;;;;;;;9.60;4.93;;;14.10;99.90;;;;;;10132051;28;20103;-60
2023/04/30 00:31:10;;;;;;;9.23;4.70;;;14.10;99.90;;;;;;10133607;28;20040;-60
2023/04/30 00:36:00;;;;;;;8.43;4.82;;;14.00;99.90;;;;;;10146361;28;20025;-60
2023/04/30 00:40:52;;;;;;;11.23;4.57;;;14.00;99.90;;;;;;10140673;28;20103;-60
2023/04/30 00:45:42;;;;;;;8.82;5.30;;;14.10;99.90;;;;;;10139916;28;20048;-60
2023/04/30 00:50:35;;;;;;;9.77;4.95;;;14.10;99.90;;;;;;10139150;28;20059;-59
2023/04/30 00:55:26;;;;;;;7.65;5.05;;;14.20;99.90;;;;;;10139218;28;20383;-61
2023/04/30 01:00:17;;;;;;;8.35;4.80;;;14.10;99.90;;;;;;10139014;28;20021;-60
2023/04/30 01:05:08;;;;;;;9.60;4.75;;;14.10;99.90;;;;;;10139826;28;20049;-61
2023/04/30 01:09:59;;;;;;;7.07;4.47;;;14.10;99.90;;;;;;10144607;28;20025;-62
2023/04/30 01:14:55;;;;;;;7.32;4.57;;;14.00;99.90;;;;;;10138916;28;20294;-59
2023/04/30 01:19:46;;;;;;;7.97;4.75;;;13.90;99.90;;;;;;10137999;28;20037;-60
2023/04/30 01:24:42;;;;;;;9.15;4.90;;;13.80;99.90;;;;;;10139043;28;20452;-63
2023/04/30 01:29:35;;;;;;;9.68;4.47;;;13.80;99.90;;;;;;10136837;28;20028;-61
2023/04/30 01:34:25;;;;;;;7.35;4.38;;;13.80;99.90;;;;;;10144451;28;20262;-62
2023/04/30 01:39:35;;;;;;;9.05;5.13;;;13.70;99.90;;;;;;10144925;28;20260;-61
2023/04/30 01:44:50;;;;;;;6.88;4.05;;;13.60;99.90;;;;;;10135265;28;20041;-61
2023/04/30 01:49:47;;;;;;;10.87;4.70;;;13.60;99.90;;;;;;10137194;28;20485;-61
2023/04/30 01:54:59;;;;;;;8.07;4.85;;;13.60;99.90;;;;;;10145936;28;20047;-62
2023/04/30 01:59:50;;;;;;;6.82;4.18;;;13.50;99.90;;;;;;10126159;28;20490;-60
2023/04/30 02:04:41;;;;;;;9.73;5.32;;;13.60;99.90;;;;;;10137393;28;20044;-59
2023/04/30 02:09:32;;;;;;;9.15;5.03;;;13.60;99.90;;;;;;10136269;28;20467;-59
2023/04/30 02:14:22;;;;;;;7.35;4.57;;;13.50;99.90;;;;;;10136739;28;20107;-61
2023/04/30 02:19:13;;;;;;;7.35;4.65;;;13.50;99.90;;;;;;10136788;28;20063;-63
2023/04/30 02:24:04;;;;;;;7.00;3.85;;;13.60;99.90;;;;;;10136846;28;20036;-59
2023/04/30 02:28:54;;;;;;;6.88;4.40;;;13.50;99.90;;;;;;10116570;28;20028;-60
2023/04/30 02:33:45;;;;;;;9.75;5.00;;;13.40;99.90;;;;;;10121978;28;20111;-59
2023/04/30 02:38:36;;;;;;;7.65;5.13;;;13.40;99.90;;;;;;10141275;28;20025;-59
2023/04/30 02:43:26;;;;;;;9.45;5.07;;;13.30;99.90;;;;;;10136964;28;20036;-60
2023/04/30 02:48:17;;;;;;;9.45;4.22;;;13.40;99.90;;;;;;10135305;28;20159;-61
2023/04/30 02:53:07;;;;;;;7.30;4.95;;;13.40;99.90;;;;;;10135590;28;20301;-60
2023/04/30 02:57:58;;;;;;;8.60;4.50;;;13.30;99.90;;;;;;10117702;28;20024;-60
2023/04/30 03:02:49;;;;;;;11.18;5.13;;;13.30;99.90;;;;;;10139972;28;20078;-59
2023/04/30 03:07:39;;;;;;;9.57;4.90;;;13.30;99.90;;;;;;10129539;28;20032;-60
2023/04/30 03:12:30;;;;;;;6.28;4.10;;;13.30;99.90;;;;;;10127056;28;20402;-63
2023/04/30 03:17:21;;;;;;;7.53;4.18;;;13.30;99.90;;;;;;10140539;28;20028;-60
2023/04/30 03:22:11;;;;;;;6.85;4.25;;;13.20;99.90;;;;;;10135479;28;20082;-59
2023/04/30 03:27:02;;;;;;;6.65;4.72;;;13.20;99.90;;;;;;10134994;28;20021;-59
2023/04/30 03:31:52;;;;;;;5.93;4.28;;;13.10;99.90;;;;;;10140187;28;20109;-62
2023/04/30 03:36:43;;;;;;;8.38;4.72;;;13.10;99.90;;;;;;10144190;28;20465;-61
2023/04/30 03:41:34;;;;;;;7.05;4.63;;;13.00;99.90;;;;;;10135199;28;20513;-60
2023/04/30 03:46:25;;;;;;;7.05;4.28;;;13.00;99.90;;;;;;10135451;28;20471;-61
2023/04/30 03:51:21;;;;;;;6.43;4.18;;;13.00;99.90;;;;;;10135576;28;20426;-60
2023/04/30 03:56:12;;;;;;;7.55;4.68;;;13.00;99.90;;;;;;10137719;28;20067;-60
2023/04/30 04:01:03;;;;;;;7.63;4.30;;;13.00;99.90;;;;;;10140034;28;20089;-60
2023/04/30 04:05:54;;;;;;;8.52;5.25;;;13.10;99.90;;;;;;10142884;28;20037;-58
2023/04/30 04:10:44;;;;;;;10.88;4.70;;;13.00;99.90;;;;;;10142270;28;20101;-59
2023/04/30 04:15:35;;;;;;;7.40;4.15;;;12.90;99.90;;;;;;10159385;28;20039;-59
2023/04/30 04:20:26;;;;;;;6.68;4.55;;;12.90;99.90;;;;;;10141476;28;20379;-60
2023/04/30 04:25:17;;;;;;;9.73;4.97;;;12.90;99.90;;;;;;10144299;28;20031;-60
2023/04/30 04:30:08;;;;;;;6.60;4.30;;;12.90;99.90;;;;;;10142311;28;20078;-59
2023/04/30 04:34:59;;;;;;;6.45;4.50;;;13.00;99.90;;;;;;10149452;28;20031;-59
2023/04/30 04:39:50;;;;;;;7.88;4.80;;;13.00;99.90;;;;;;10144292;28;20025;-59
2023/04/30 04:44:40;;;;;;;8.40;5.28;;;12.90;99.90;;;;;;10141428;28;20036;-62
2023/04/30 04:49:31;;;;;;;10.68;4.35;;;12.90;99.90;;;;;;10136696;28;20137;-61
2023/04/30 04:54:22;;;;;;;9.50;5.45;;;12.90;99.90;;;;;;10141385;28;20035;-60
2023/04/30 04:59:12;;;;;;;8.05;4.68;;;13.00;99.90;;;;;;10142063;28;20028;-61
2023/04/30 05:04:03;;;;;;;9.50;4.30;;;13.00;99.90;;;;;;10135720;28;20462;-66
2023/04/30 05:08:53;;;;;;;8.68;4.70;;;13.10;99.90;;;;;;10122799;28;20052;-64
2023/04/30 05:13:44;;;;;;;7.20;4.32;;;13.30;99.90;;;;;;10139575;28;20195;-66
2023/04/30 05:18:35;;;;;;;10.25;4.75;;;13.10;99.90;;;;;;10142285;28;20034;-65
2023/04/30 05:23:27;;;;;;;7.40;4.53;;;13.20;99.90;;;;;;10148546;28;20045;-62
2023/04/30 05:28:17;;;;;;;6.38;4.40;;;13.20;99.90;;;;;;10141444;28;20025;-60
2023/04/30 05:33:08;;;;;;;6.03;4.00;;;13.20;99.90;;;;;;10139493;28;20029;-60
2023/04/30 05:37:59;;;;;;;6.43;3.80;;;13.30;99.90;;;;;;10156291;28;20506;-59
2023/04/30 05:42:49;;;;;;;7.65;4.35;;;13.30;99.90;;;;;;10141214;28;20081;-64
2023/04/30 05:47:40;;;;;;;6.57;4.47;;;13.30;99.90;;;;;;10143337;28;20197;-67
2023/04/30 05:52:31;;;;;;;7.57;4.85;;;13.40;99.90;;;;;;10144838;28;20490;-61
2023/04/30 05:57:21;;;;;;;6.95;4.35;;;13.50;99.90;;;;;;10124494;28;20075;-62
2023/04/30 06:02:12;;;;;;;6.35;4.38;;;13.60;99.90;;;;;;10141564;28;20043;-63
2023/04/30 06:07:03;;;;;;;6.05;4.07;;;13.70;99.90;;;;;;10153236;28;20032;-63
2023/04/30 06:11:54;;;;;;;5.15;3.78;;;13.80;99.90;;;;;;10142717;28;20506;-66
2023/04/30 06:16:45;;;;;;;6.18;4.28;;;13.90;99.90;;;;;;10139782;28;20537;-60
2023/04/30 06:21:36;;;;;;;6.95;3.70;;;13.90;99.90;;;;;;10139125;28;20047;-63
2023/04/30 06:26:27;;;;;;;6.85;4.18;;;14.10;99.90;;;;;;10142044;28;20035;-65
2023/04/30 06:31:17;;;;;;;6.57;4.70;;;14.20;99.90;;;;;;10142228;28;20446;-60
2023/04/30 06:36:08;;;;;;;7.78;4.63;;;14.10;99.90;;;;;;10153221;28;20093;-63
2023/04/30 06:40:59;;;;;;;6.07;4.25;;;14.20;99.90;;;;;;10124742;28;20091;-62
2023/04/30 06:45:49;;;;;;;6.47;4.18;;;14.20;99.90;;;;;;10144594;28;20052;-62
2023/04/30 06:50:43;;;;;;;7.13;4.18;;;14.30;99.90;;;;;;10144540;28;20091;-61
2023/04/30 06:55:34;;;;;;;8.30;4.15;;;14.30;99.90;;;;;;10156607;28;20359;-66
2023/04/30 07:00:25;;;;;;;6.57;4.28;;;14.40;99.90;;;;;;10143300;28;20032;-68
2023/04/30 07:05:16;;;;;;;5.15;3.63;;;14.50;99.90;;;;;;10141144;28;20051;-65
2023/04/30 07:10:07;;;;;;;5.15;3.88;;;14.50;99.90;;;;;;10142075;28;20041;-63
2023/04/30 07:14:57;;;;;;;5.20;3.78;;;14.60;99.90;;;;;;10141638;28;20085;-62
2023/04/30 07:19:48;;;;;;;5.13;3.30;;;14.60;99.90;;;;;;10142106;28;20355;-62
2023/04/30 07:24:39;;;;;;;5.68;4.25;;;14.80;99.90;;;;;;10141275;28;20041;-63
2023/04/30 07:29:30;;;;;;;3.65;2.70;;;14.90;99.90;;;;;;10150872;28;20035;-64
2023/04/30 07:34:20;;;;;;;4.15;2.70;;;15.00;99.90;;;;;;10145090;28;20032;-62
2023/04/30 07:39:11;;;;;;;6.32;3.55;;;15.10;99.90;;;;;;10148064;28;20021;-62
2023/04/30 07:44:02;;;;;;;4.43;3.00;;;15.10;99.90;;;;;;10157906;28;20089;-61
2023/04/30 07:48:52;;;;;;;6.78;2.70;;;15.30;99.90;;;;;;10146471;28;20124;-62
2023/04/30 07:53:43;;;;;;;5.80;2.83;;;15.40;99.90;;;;;;10144056;28;20028;-61
2023/04/30 07:58:33;;;;;;;3.72;2.53;;;15.50;99.90;;;;;;10148117;28;20028;-62
2023/04/30 08:03:24;;;;;;;4.55;3.10;;;15.60;99.90;;;;;;10145803;28;20082;-60
2023/04/30 08:08:15;;;;;;;4.80;2.70;;;15.60;99.90;;;;;;10144425;28;20039;-65
2023/04/30 08:13:05;;;;;;;4.70;2.90;;;15.70;99.90;;;;;;10144151;28;20035;-62
2023/04/30 08:17:56;;;;;;;3.78;2.47;;;15.70;99.90;;;;;;10143185;28;20024;-60
2023/04/30 08:22:46;;;;;;;3.38;2.63;;;15.80;99.90;;;;;;10124404;28;20119;-59
2023/04/30 08:27:38;;;;;;;3.50;2.90;;;15.90;99.90;;;;;;10142539;28;20143;-60
2023/04/30 08:32:29;;;;;;;5.82;2.80;;;16.00;99.90;;;;;;10142469;28;20044;-60
2023/04/30 08:37:20;;;;;;;4.07;2.90;;;16.00;99.90;;;;;;10137123;28;20028;-62
2023/04/30 08:42:13;;;;;;;3.97;3.17;;;16.00;99.90;;;;;;10140743;28;20032;-60
2023/04/30 08:47:07;;;;;;;5.50;3.75;;;16.10;99.90;;;;;;10138852;28;20390;-61
2023/04/30 08:51:59;;;;;;;6.75;3.08;;;16.20;99.90;;;;;;10140154;28;20275;-59
2023/04/30 08:56:50;;;;;;;4.32;3.17;;;16.40;99.90;;;;;;10146876;28;20032;-61
2023/04/30 09:01:41;;;;;;;4.28;3.50;;;16.40;99.90;;;;;;10134727;28;20025;-62
2023/04/30 09:06:31;;;;;;;3.78;3.05;;;16.50;99.90;;;;;;10122679;28;20040;-60
2023/04/30 09:11:27;;;;;;;3.80;3.05;;;16.70;99.90;;;;;;10125240;28;20024;-60
2023/04/30 09:16:19;;;;;;;5.63;2.95;;;16.70;99.90;;;;;;10133967;28;20501;-60
2023/04/30 09:21:10;;;;;;;4.22;2.70;;;16.90;99.90;;;;;;10126372;28;20031;-60
2023/04/30 09:26:00;;;;;;;2.88;2.50;;;17.10;99.90;;;;;;10128512;28;20040;-60
2023/04/30 09:30:51;;;;;;;3.45;2.50;;;17.10;99.90;;;;;;10130466;28;20062;-61
2023/04/30 09:35:42;;;;;;;4.60;2.60;;;17.20;99.90;;;;;;10143933;28;20100;-61
2023/04/30 09:40:41;;;;;;;6.65;2.53;;;17.40;99.90;;;;;;10142346;28;20036;-61
2023/04/30 09:45:58;;;;;;;4.90;3.15;;;17.30;99.90;;;;;;10141988;28;20097;-59
2023/04/30 09:50:50;;;;;;;4.43;2.67;;;17.50;99.30;;;;;;10145200;28;20119;-63
2023/04/30 09:55:46;;;;;;;3.85;2.13;;;17.60;99.80;;;;;;10138270;28;20062;-63
2023/04/30 10:00:41;;;;;;;2.72;2.22;;;17.70;99.50;;;;;;10121677;28;20477;-59
2023/04/30 10:05:36;;;;;;;2.73;2.00;;;17.80;99.40;;;;;;10140903;28;20044;-60
2023/04/30 10:10:28;;;;;;;5.25;3.17;;;18.10;99.20;;;;;;10140650;28;20481;-65
2023/04/30 10:15:35;;;;;;;3.22;2.08;;;18.10;99.00;;;;;;10149156;28;20064;-60
2023/04/30 10:20:26;;;;;;;3.30;2.08;;;17.80;98.70;;;;;;10142617;28;20036;-60
2023/04/30 10:25:18;;;;;;;1.98;1.77;;;17.80;99.10;;;;;;10136410;28;20060;-66
2023/04/30 10:30:10;;;;;;;4.78;2.25;;;18.10;98.70;;;;;;10125945;28;20090;-61
2023/04/30 10:35:29;;;;;;;3.53;2.90;;;18.20;98.60;;;;;;10141160;28;20398;-60
2023/04/30 10:40:20;;;;;;;3.22;2.38;;;18.40;97.70;;;;;;10118323;28;20051;-60
2023/04/30 10:45:11;;;;;;;3.33;2.05;;;18.40;98.40;;;;;;10139251;28;20032;-60
2023/04/30 10:50:03;;;;;;;3.15;2.13;;;18.40;98.10;;;;;;10135399;28;20468;-60
2023/04/30 10:54:54;;;;;;;2.72;1.85;;;18.20;97.80;;;;;;10135822;28;20119;-60
2023/04/30 11:00:15;;;;;;;2.65;1.77;;;18.70;97.40;;;;;;10141124;28;20542;-60
2023/04/30 11:05:09;;;;;;;4.88;2.40;;;18.80;97.00;;;;;;10128309;28;20052;-62
2023/04/30 11:10:01;;;;;;;2.80;1.95;;;18.70;97.00;;;;;;10136998;28;20032;-61
2023/04/30 11:14:51;;;;;;;2.67;2.08;;;18.40;96.40;;;;;;10149737;28;20028;-63
2023/04/30 11:19:47;;;;;;;3.33;1.95;;;18.50;96.30;;;;;;10143672;28;20549;-61
2023/04/30 11:24:57;;;;;;;3.10;2.25;;;19.00;96.00;;;;;;10143733;28;20040;-60
2023/04/30 11:29:48;;;;;;;3.15;1.90;;;19.30;95.50;;;;;;10145892;28;20286;-62
2023/04/30 11:34:41;;;;;;;2.67;2.15;;;19.20;95.80;;;;;;10150550;28;20023;-67
2023/04/30 11:39:35;;;;;;;2.30;2.10;;;19.20;95.80;;;;;;10146970;28;20491;-63
2023/04/30 11:44:26;;;;;;;3.55;2.22;;;19.30;95.80;;;;;;10142321;28;20047;-68
2023/04/30 11:49:19;;;;;;;3.00;2.17;;;19.40;95.60;;;;;;10142913;28;20072;-66
2023/04/30 11:54:13;;;;;;;2.78;2.22;;;19.20;95.60;;;;;;10125867;28;20061;-65
2023/04/30 11:59:09;;;;;;;4.07;2.15;;;19.30;95.50;;;;;;10155128;28;20043;-62
2023/04/30 12:04:02;;;;;;;2.25;1.98;;;19.60;95.40;;;;;;10142659;28;20493;-65
2023/04/30 12:08:54;;;;;;;2.17;1.83;;;20.00;95.30;;;;;;10143498;28;20402;-64
2023/04/30 12:14:04;;;;;;;2.28;1.52;;;20.00;94.80;;;;;;10142491;28;20473;-65
2023/04/30 12:18:54;;;;;;;3.08;1.77;;;19.70;94.60;;;;;;10133330;28;20025;-64
2023/04/30 12:23:45;;;;;;;4.65;2.83;;;19.90;94.60;;;;;;10145723;28;20040;-61
2023/04/30 12:28:36;;;;;;;6.60;3.05;;;20.00;94.50;;;;;;10142940;28;20651;-63
2023/04/30 12:33:31;;;;;;;4.68;2.58;;;20.20;94.20;;;;;;10141842;28;20350;-62
2023/04/30 12:38:22;;;;;;;;;;;20.20;94.00;;;;;;10149283;28;20442;-64
2023/04/30 12:43:15;;;;;;;1.88;1.67;;;20.10;93.10;;;;;;10140748;28;20009;-62
2023/04/30 12:48:05;;;;;;;2.65;2.08;;;20.40;93.70;;;;;;10140943;28;20239;-64
2023/04/30 12:53:01;;;;;;;4.32;2.00;;;20.80;93.40;;;;;;10140815;28;20409;-62
2023/04/30 12:58:13;;;;;;;2.35;2.10;;;21.00;93.10;;;;;;10139369;28;20074;-62
2023/04/30 13:03:04;;;;;;;3.83;2.20;;;20.90;91.80;;;;;;10140366;28;20124;-62
2023/04/30 13:08:01;;;;;;;2.95;2.00;;;21.00;92.50;;;;;;10146753;28;20132;-63
2023/04/30 13:12:52;;;;;;;2.25;1.67;;;21.50;91.80;;;;;;10139784;28;20020;-63
2023/04/30 13:17:43;;;;;;;2.00;1.50;;;21.50;91.70;;;;;;10125044;28;20037;-62
2023/04/30 13:22:34;;;;;;;3.88;2.10;;;21.70;91.20;;;;;;10133459;28;20098;-61
2023/04/30 13:27:24;;;;;;;2.58;1.65;;;21.90;90.90;;;;;;10136986;28;20028;-66
2023/04/30 13:32:15;;;;;;;2.92;1.80;;;22.70;90.60;;;;;;10135421;28;20036;-66
2023/04/30 13:37:06;;;;;;;2.88;1.83;;;23.90;90.10;;;;;;10137817;28;20036;-62
2023/04/30 13:41:57;;;;;;;4.00;2.20;;;23.70;89.50;;;;;;10138179;28;20077;-62
2023/04/30 13:46:47;;;;;;;2.55;1.95;;;23.10;88.70;;;;;;10140512;28;20033;-62
2023/04/30 13:51:38;;;;;;;2.10;1.73;;;23.00;88.30;;;;;;10138885;28;20084;-61
2023/04/30 13:56:28;;;;;;;4.75;2.05;;;22.60;88.10;;;;;;10137280;28;20024;-62
2023/04/30 14:01:20;;;;;;;2.40;1.63;;;22.40;87.20;;;;;;10137343;28;20162;-62
2023/04/30 14:06:11;;;;;;;2.17;1.65;;;23.60;85.10;;;;;;10151846;28;20490;-62
2023/04/30 14:11:01;;;;;;;1.33;1.23;;;24.20;83.80;;;;;;10137984;28;20029;-61
2023/04/30 14:15:54;;;;;;;2.53;1.80;;;24.10;83.50;;;;;;10137878;28;20059;-63
2023/04/30 14:20:45;;;;;;;1.43;1.33;;;25.00;83.30;;;;;;10137842;28;20565;-61
2023/04/30 14:25:36;;;;;;;1.63;1.52;;;24.60;81.70;;;;;;10136638;28;20123;-62
2023/04/30 14:30:27;;;;;;;3.30;1.60;;;24.30;81.40;;;;;;10124569;28;20020;-63
2023/04/30 14:35:17;;;;;;;1.90;1.60;;;23.40;80.50;;;;;;10142693;28;20041;-66
2023/04/30 14:40:08;;;;;;;1.92;1.60;;;22.80;80.80;;;;;;10136365;28;20500;-62
2023/04/30 14:44:59;;;;;;;2.55;1.35;;;22.40;80.80;;;;;;10142574;28;20059;-63
2023/04/30 14:49:52;;;;;;;2.33;1.80;;;21.70;80.60;;;;;;10117812;28;20525;-60
2023/04/30 14:54:43;;;;;;;2.35;1.58;;;22.00;80.30;;;;;;10136421;28;20028;-62
2023/04/30 14:59:34;;;;;;;2.03;1.50;;;23.10;79.40;;;;;;10119449;28;20108;-61
2023/04/30 15:04:25;;;;;;;3.75;1.65;;;23.60;78.70;;;;;;10118416;28;20136;-61
2023/04/30 15:09:15;;;;;;;4.72;2.00;;;23.90;77.70;;;;;;10141841;28;20461;-62
2023/04/30 15:14:06;;;;;;;2.40;1.40;;;22.50;78.30;;;;;;10138372;28;20033;-61
2023/04/30 15:18:57;;;;;;;3.05;1.90;;;22.60;78.10;;;;;;10135762;28;20120;-61
2023/04/30 15:23:49;;;;;;;1.90;1.52;;;22.70;77.90;;;;;;10136438;28;20044;-63
2023/04/30 15:28:39;;;;;;;5.88;2.03;;;22.60;77.90;;;;;;10136320;28;20058;-62
2023/04/30 15:33:30;;;;;;;3.53;1.70;;;22.90;77.90;;;;;;10136090;28;20061;-61
2023/04/30 15:38:21;;;;;;;3.75;1.83;;;22.90;77.70;;;;;;10141235;28;20071;-60
2023/04/30 15:43:12;;;;;;;2.15;1.92;;;22.50;77.70;;;;;;10135366;28;20036;-62
2023/04/30 15:48:03;;;;;;;1.70;1.58;;;22.00;77.70;;;;;;10142313;28;20067;-62
2023/04/30 15:52:54;;;;;;;2.20;1.92;;;21.60;78.20;;;;;;10135182;28;20089;-62
2023/04/30 15:57:45;;;;;;;1.65;1.38;;;21.40;77.90;;;;;;10124721;28;20383;-59
2023/04/30 16:02:35;;;;;;;2.40;2.03;;;21.50;77.90;;;;;;10142850;28;20044;-61
2023/04/30 16:07:26;;;;;;;2.45;1.63;;;21.50;77.90;;;;;;10145640;28;20025;-62
2023/04/30 16:12:17;;;;;;;2.40;1.80;;;21.40;78.00;;;;;;10147353;28;20441;-62
2023/04/30 16:17:08;;;;;;;2.28;2.08;;;21.50;77.80;;;;;;10143870;28;20040;-65
2023/04/30 16:21:59;;;;;;;3.05;2.40;;;20.90;78.30;;;;;;10143616;28;20044;-62
2023/04/30 16:26:50;;;;;;;3.47;1.60;;;21.10;78.30;;;;;;10125660;28;20028;-62
2023/04/30 16:31:40;;;;;;;4.90;1.98;;;21.60;77.50;;;;;;10141903;28;20103;-62
2023/04/30 16:36:31;;;;;;;2.58;1.85;;;22.70;76.50;;;;;;10131218;28;20045;-61
2023/04/30 16:41:22;;;;;;;3.85;1.80;;;23.10;76.00;;;;;;10140614;28;20154;-59
2023/04/30 16:46:12;;;;;;;2.35;1.88;;;23.30;75.50;;;;;;10139890;28;20210;-60
2023/04/30 16:51:05;;;;;;;2.53;1.95;;;22.50;76.10;;;;;;10146735;28;20521;-62
2023/04/30 16:55:56;;;;;;;2.47;1.65;;;22.00;76.70;;;;;;10140419;28;20486;-61
2023/04/30 17:00:48;;;;;;;2.20;2.00;;;21.40;76.90;;;;;;10122544;28;20067;-61
2023/04/30 17:05:39;;;;;;;2.97;1.90;;;20.70;77.70;;;;;;10141584;28;20470;-64
2023/04/30 17:10:30;;;;;;;1.85;1.48;;;20.40;78.00;;;;;;10121254;28;20033;-62
2023/04/30 17:15:21;;;;;;;2.80;1.88;;;20.10;78.10;;;;;;10137440;28;20029;-63
2023/04/30 17:20:11;;;;;;;2.40;1.90;;;20.00;78.20;;;;;;10141414;28;20035;-62
2023/04/30 17:25:03;;;;;;;2.75;1.98;;;19.90;78.40;;;;;;10138722;28;20045;-61
2023/04/30 17:29:54;;;;;;;3.83;1.75;;;20.00;78.30;;;;;;10138562;28;20017;-61
2023/04/30 17:34:45;;;;;;;2.30;2.00;;;19.90;78.60;;;;;;10145103;28;20029;-62
2023/04/30 17:39:35;;;;;;;3.45;2.15;;;19.80;78.70;;;;;;10137969;28;20103;-63
2023/04/30 17:44:27;;;;;;;3.50;2.47;;;19.60;79.10;;;;;;10138355;28;20510;-63
2023/04/30 17:49:17;;;;;;;4.43;2.53;;;19.60;79.10;;;;;;10138128;28;20033;-62
2023/04/30 17:54:08;;;;;;;3.60;2.38;;;19.40;79.50;;;;;;10138486;28;20048;-62
2023/04/30 17:58:59;;;;;;;2.75;1.88;;;19.30;79.70;;;;;;10142191;28;20025;-67
2023/04/30 18:03:50;;;;;;;3.40;2.13;;;19.20;79.90;;;;;;10142738;28;20100;-65
2023/04/30 18:08:40;;;;;;;2.80;2.00;;;19.10;80.00;;;;;;10146663;28;20036;-65
2023/04/30 18:13:31;;;;;;;3.85;2.30;;;19.00;80.20;;;;;;10137589;28;20040;-62
2023/04/30 18:18:22;;;;;;;2.80;2.25;;;18.90;80.30;;;;;;10137489;28;20021;-65
2023/04/30 18:23:13;;;;;;;3.78;2.30;;;18.90;80.60;;;;;;10129795;28;20151;-64
2023/04/30 18:28:05;;;;;;;5.57;3.13;;;18.80;80.80;;;;;;10132819;28;20021;-65
2023/04/30 18:32:56;;;;;;;2.65;2.33;;;18.70;80.80;;;;;;10119181;28;20670;-64
2023/04/30 18:37:46;;;;;;;2.80;2.28;;;18.70;81.00;;;;;;10146092;28;20029;-61
2023/04/30 18:42:37;;;;;;;2.78;1.92;;;18.60;81.20;;;;;;10143672;28;20053;-66
2023/04/30 18:47:29;;;;;;;3.05;2.22;;;18.50;81.60;;;;;;10147976;28;20032;-65
2023/04/30 18:52:21;;;;;;;4.22;2.40;;;18.50;81.60;;;;;;10145090;28;20063;-64
2023/04/30 18:57:15;;;;;;;4.30;2.75;;;18.40;81.50;;;;;;10147895;28;20067;-64
2023/04/30 19:02:05;;;;;;;2.50;1.92;;;18.30;81.80;;;;;;10143511;28;20032;-63
2023/04/30 19:06:56;;;;;;;3.55;2.47;;;18.30;82.10;;;;;;10145139;28;20032;-60
2023/04/30 19:11:47;;;;;;;3.30;2.30;;;18.20;82.00;;;;;;10136198;28;20032;-61
2023/04/30 19:16:38;;;;;;;3.60;2.50;;;18.20;82.30;;;;;;10135955;28;20059;-61
2023/04/30 19:21:29;;;;;;;3.80;2.25;;;18.00;82.50;;;;;;10135625;28;20043;-61
2023/04/30 19:26:21;;;;;;;3.08;2.28;;;18.00;82.60;;;;;;10140287;28;20086;-63
2023/04/30 19:31:11;;;;;;;4.18;2.42;;;18.00;82.80;;;;;;10136888;28;20025;-61
2023/04/30 19:36:03;;;;;;;4.82;2.83;;;17.90;83.00;;;;;;10148693;28;20025;-61
2023/04/30 19:40:53;;;;;;;4.10;2.50;;;17.90;83.10;;;;;;10145431;28;20424;-62
2023/04/30 19:45:52;;;;;;;4.50;2.03;;;18.00;83.00;;;;;;10143108;28;20056;-61
2023/04/30 19:50:46;;;;;;;4.65;2.40;;;17.90;83.30;;;;;;10143644;28;20490;-62
2023/04/30 19:55:37;;;;;;;3.53;2.15;;;17.80;83.60;;;;;;10143125;28;20020;-62
2023/04/30 20:00:28;;;;;;;3.45;2.33;;;17.70;84.50;;;;;;10139739;28;20454;-61
2023/04/30 20:05:18;;;;;;;3.85;2.50;;;17.70;84.10;;;;;;10116792;28;20043;-63
2023/04/30 20:10:09;;;;;;;3.72;1.80;;;17.70;84.30;;;;;;10140013;28;20031;-61
2023/04/30 20:15:00;;;;;;;2.80;2.47;;;17.60;84.40;;;;;;10139912;28;20090;-62
2023/04/30 20:19:51;;;;;;;3.65;2.60;;;17.50;84.60;;;;;;10128251;28;20410;-63
2023/04/30 20:24:43;;;;;;;3.65;2.00;;;17.50;84.70;;;;;;10157012;28;20055;-61
2023/04/30 20:29:34;;;;;;;3.30;2.53;;;17.40;84.90;;;;;;10131099;28;20032;-66
2023/04/30 20:34:25;;;;;;;3.05;2.35;;;17.30;85.20;;;;;;10151566;28;20024;-62
2023/04/30 20:39:16;;;;;;;3.42;2.20;;;17.30;85.40;;;;;;10123272;28;20040;-61
2023/04/30 20:44:06;;;;;;;3.30;2.08;;;17.20;85.60;;;;;;10140420;28;20063;-61
2023/04/30 20:49:02;;;;;;;2.70;2.13;;;17.10;85.70;;;;;;10141646;28;20102;-60
2023/04/30 20:53:53;;;;;;;3.03;2.17;;;17.10;86.00;;;;;;10142277;28;20393;-60
2023/04/30 20:58:44;;;;;;;3.33;2.00;;;17.00;86.60;;;;;;10121622;28;20115;-61
2023/04/30 21:03:35;;;;;;;3.97;2.50;;;17.00;86.10;;;;;;10140979;28;20552;-62
2023/04/30 21:08:26;;;;;;;3.22;2.10;;;17.00;86.30;;;;;;10127946;28;20404;-60
2023/04/30 21:13:16;;;;;;;2.65;2.30;;;17.00;86.30;;;;;;10140034;28;20027;-63
2023/04/30 21:18:08;;;;;;;4.63;2.53;;;17.00;86.30;;;;;;10139094;28;20132;-60
2023/04/30 21:22:59;;;;;;;3.70;2.63;;;16.90;86.40;;;;;;10139323;28;20052;-60
2023/04/30 21:27:51;;;;;;;4.05;2.33;;;16.90;86.60;;;;;;10138843;28;20060;-62
2023/04/30 21:32:48;;;;;;;3.38;2.10;;;16.90;86.80;;;;;;10146351;28;20497;-61
2023/04/30 21:37:38;;;;;;;3.13;1.98;;;16.80;86.90;;;;;;10144500;28;20036;-59
2023/04/30 21:42:29;;;;;;;3.38;2.42;;;16.70;87.30;;;;;;10137902;28;20033;-61
2023/04/30 21:47:20;;;;;;;3.33;2.47;;;16.60;87.60;;;;;;10144496;28;20044;-62
2023/04/30 21:52:10;;;;;;;4.05;2.38;;;16.60;87.70;;;;;;10119768;28;20042;-61
2023/04/30 21:57:01;;;;;;;4.05;2.10;;;16.60;88.00;;;;;;10136585;28;20040;-61
2023/04/30 22:01:52;;;;;;;3.38;3.08;;;16.40;88.20;;;;;;10138636;28;20494;-62
2023/04/30 22:06:42;;;;;;;6.05;2.90;;;16.30;88.60;;;;;;10140773;28;20437;-62
2023/04/30 22:11:33;;;;;;;4.32;2.88;;;16.40;88.60;;;;;;10119458;28;20040;-62
2023/04/30 22:16:23;;;;;;;4.82;2.40;;;16.40;88.70;;;;;;10136560;28;20227;-62
2023/04/30 22:21:14;;;;;;;4.60;2.38;;;16.40;88.80;;;;;;10137454;28;20449;-67
2023/04/30 22:26:08;;;;;;;3.38;2.50;;;16.30;89.10;;;;;;10139627;28;20037;-62
2023/04/30 22:30:59;;;;;;;3.50;2.60;;;16.20;89.60;;;;;;10146425;28;20032;-64
2023/04/30 22:35:49;;;;;;;5.18;3.30;;;16.00;90.00;;;;;;10140469;28;20037;-62
2023/04/30 22:40:40;;;;;;;5.18;2.92;;;16.00;90.10;;;;;;10139670;28;20386;-61
2023/04/30 22:45:35;;;;;;;3.30;2.50;;;15.90;90.20;;;;;;10136606;28;20379;-60
2023/04/30 22:50:26;;;;;;;4.28;3.00;;;15.90;90.30;;;;;;10137016;28;20571;-66
2023/04/30 22:55:17;;;;;;;3.83;2.97;;;15.80;90.40;;;;;;10136507;28;20032;-62
2023/04/30 23:00:08;;;;;;;4.15;3.05;;;15.80;90.40;;;;;;10143561;28;20060;-61
2023/04/30 23:04:59;;;;;;;6.15;2.90;;;15.80;90.50;;;;;;10141282;28;20040;-60
2023/04/30 23:09:49;;;;;;;4.18;3.25;;;15.80;90.50;;;;;;10146984;28;20032;-60
2023/04/30 23:14:40;;;;;;;5.10;2.90;;;15.80;90.70;;;;;;10148088;28;20039;-59
2023/04/30 23:19:31;;;;;;;3.47;2.67;;;15.80;90.70;;;;;;10144047;28;20035;-60
2023/04/30 23:24:22;;;;;;;4.78;3.15;;;15.80;90.80;;;;;;10143670;28;20367;-60
2023/04/30 23:29:13;;;;;;;4.85;3.40;;;15.80;91.10;;;;;;10143562;28;20872;-61
2023/04/30 23:34:04;;;;;;;6.05;3.05;;;15.80;90.90;;;;;;10140180;28;20956;-61
2023/04/30 23:38:54;;;;;;;4.10;3.10;;;15.80;90.90;;;;;;10149403;28;20038;-59
2023/04/30 23:43:46;;;;;;;6.22;3.67;;;15.80;91.00;;;;;;10142741;28;20433;-60
2023/04/30 23:48:36;;;;;;;5.22;3.28;;;15.80;91.10;;;;;;10142363;28;20079;-60
2023/04/30 23:53:27;;;;;;;5.38;3.22;;;15.80;91.10;;;;;;10148935;28;20493;-62
2023/04/30 23:58:18;;;;;;;7.90;3.28;;;15.70;91.20;;;;;;10124287;28;20039;-60
